createdAt,value
2018-11-22T00:00:36.014Z,4.00
2018-11-22T00:01:36.067Z,8.00
2018-11-22T00:02:36.110Z,8.00
2018-11-22T00:03:36.135Z,8.00
2018-11-22T00:04:36.179Z,8.00
2018-11-22T00:05:36.238Z,8.00
2018-11-22T00:06:36.257Z,8.00
2018-11-22T00:07:36.291Z,8.00
2018-11-22T00:08:36.324Z,8.00
2018-11-22T00:09:36.396Z,8.00
2018-11-22T00:10:36.463Z,8.00
2018-11-22T00:11:36.469Z,8.00
2018-11-22T00:12:36.543Z,8.00
2018-11-22T00:13:36.574Z,8.00
2018-11-22T00:14:36.618Z,8.00
2018-11-22T00:15:36.655Z,8.00
2018-11-22T00:16:36.713Z,8.00
2018-11-22T00:17:36.761Z,8.00
2018-11-22T00:18:36.781Z,8.00
2018-11-22T00:19:36.870Z,8.00
2018-11-22T00:20:36.920Z,8.00
2018-11-22T00:21:36.922Z,8.00
2018-11-22T00:22:36.987Z,8.00
2018-11-22T00:23:37.029Z,8.00
2018-11-22T00:24:37.103Z,8.00
2018-11-22T00:25:37.109Z,8.00
2018-11-22T00:26:37.193Z,8.00
2018-11-22T00:27:37.181Z,8.00
2018-11-22T00:28:37.223Z,8.00
2018-11-22T00:29:37.302Z,8.00
2018-11-22T00:30:37.316Z,8.00
2018-11-22T00:31:37.377Z,8.00
2018-11-22T00:32:37.428Z,8.00
2018-11-22T00:33:37.450Z,8.00
2018-11-22T00:34:37.484Z,8.00
2018-11-22T00:35:37.538Z,8.00
2018-11-22T00:36:37.585Z,8.00
2018-11-22T00:37:37.641Z,8.00
2018-11-22T00:38:37.685Z,8.00
2018-11-22T00:39:37.752Z,8.00
2018-11-22T00:40:37.792Z,8.00
2018-11-22T00:41:37.835Z,8.00
2018-11-22T00:42:37.868Z,8.00
2018-11-22T00:43:37.923Z,8.00
2018-11-22T00:44:37.940Z,8.00
2018-11-22T00:45:37.971Z,4.00
2018-11-22T00:46:38.057Z,4.00
2018-11-22T00:47:38.095Z,4.00
2018-11-22T00:48:38.106Z,8.00
2018-11-22T00:49:38.171Z,0.00
2018-11-22T00:50:38.241Z,0.00
2018-11-22T00:51:38.264Z,0.00
2018-11-22T00:52:38.305Z,0.00
2018-11-22T00:53:38.345Z,0.00
2018-11-22T00:54:38.368Z,0.00
2018-11-22T00:55:38.406Z,0.00
2018-11-22T00:56:38.504Z,0.00
2018-11-22T00:57:38.534Z,0.00
2018-11-22T00:58:38.533Z,0.00
2018-11-22T00:59:38.615Z,0.00
2018-11-22T01:00:38.657Z,0.00
2018-11-22T01:01:38.700Z,0.00
2018-11-22T01:02:38.777Z,0.00
2018-11-22T01:03:38.775Z,0.00
2018-11-22T01:04:38.840Z,0.00
2018-11-22T01:05:38.852Z,0.00
2018-11-22T01:06:38.898Z,0.00
2018-11-22T01:07:38.993Z,0.00
2018-11-22T01:08:38.984Z,0.00
2018-11-22T01:09:39.031Z,0.00
2018-11-22T01:10:39.070Z,0.00
2018-11-22T01:11:39.152Z,0.00
2018-11-22T01:12:39.171Z,0.00
2018-11-22T01:13:39.214Z,0.00
2018-11-22T01:14:39.267Z,0.00
2018-11-22T01:15:39.303Z,0.00
2018-11-22T01:16:39.352Z,0.00
2018-11-22T01:17:39.443Z,0.00
2018-11-22T01:18:39.416Z,0.00
2018-11-22T01:19:39.513Z,0.00
2018-11-22T01:20:39.510Z,0.00
2018-11-22T01:21:39.553Z,0.00
2018-11-22T01:22:39.588Z,0.00
2018-11-22T01:23:39.644Z,0.00
2018-11-22T01:24:39.695Z,0.00
2018-11-22T01:25:39.752Z,0.00
2018-11-22T01:26:39.794Z,0.00
2018-11-22T01:27:39.839Z,0.00
2018-11-22T01:28:39.888Z,0.00
2018-11-22T01:29:39.958Z,0.00
2018-11-22T01:30:39.965Z,0.00
2018-11-22T01:31:40.005Z,0.00
2018-11-22T01:32:40.074Z,0.00
2018-11-22T01:33:40.099Z,0.00
2018-11-22T01:34:40.182Z,0.00
2018-11-22T01:35:40.173Z,0.00
2018-11-22T01:36:40.237Z,0.00
2018-11-22T01:37:40.323Z,0.00
2018-11-22T01:38:40.328Z,0.00
2018-11-22T01:39:40.386Z,0.00
2018-11-22T01:40:40.414Z,0.00
2018-11-22T01:41:40.453Z,0.00
2018-11-22T01:42:40.505Z,0.00
2018-11-22T01:43:40.537Z,0.00
2018-11-22T01:44:40.635Z,0.00
2018-11-22T01:45:40.650Z,0.00
2018-11-22T01:46:40.689Z,0.00
2018-11-22T01:47:40.743Z,0.00
2018-11-22T01:48:40.774Z,0.00
2018-11-22T01:49:40.852Z,0.00
2018-11-22T01:50:40.870Z,0.00
2018-11-22T01:51:40.910Z,0.00
2018-11-22T01:52:40.928Z,0.00
2018-11-22T01:53:41.004Z,0.00
2018-11-22T01:54:41.059Z,0.00
2018-11-22T01:55:41.077Z,0.00
2018-11-22T01:56:41.125Z,0.00
2018-11-22T01:57:41.210Z,0.00
2018-11-22T01:58:41.219Z,0.00
2018-11-22T01:59:41.310Z,0.00
2018-11-22T02:00:41.294Z,0.00
2018-11-22T02:01:41.402Z,0.00
2018-11-22T02:02:41.458Z,0.00
2018-11-22T02:03:41.485Z,0.00
2018-11-22T02:04:41.585Z,0.00
2018-11-22T02:05:41.580Z,0.00
2018-11-22T02:06:41.629Z,0.00
2018-11-22T02:07:41.687Z,0.00
2018-11-22T02:08:41.697Z,0.00
2018-11-22T02:09:41.754Z,0.00
2018-11-22T02:10:41.792Z,0.00
2018-11-22T02:11:41.856Z,0.00
2018-11-22T02:12:41.894Z,0.00
2018-11-22T02:13:41.951Z,0.00
2018-11-22T02:14:41.937Z,0.00
2018-11-22T02:15:42.078Z,0.00
2018-11-22T02:16:42.013Z,0.00
2018-11-22T02:17:42.099Z,0.00
2018-11-22T02:18:42.164Z,0.00
2018-11-22T02:19:42.178Z,0.00
2018-11-22T02:20:42.283Z,0.00
2018-11-22T02:21:42.272Z,0.00
2018-11-22T02:22:42.322Z,0.00
2018-11-22T02:23:42.331Z,0.00
2018-11-22T02:24:42.415Z,0.00
2018-11-22T02:25:42.477Z,0.00
2018-11-22T02:26:42.455Z,0.00
2018-11-22T02:27:42.652Z,0.00
2018-11-22T02:28:42.603Z,0.00
2018-11-22T02:29:42.643Z,0.00
2018-11-22T02:30:42.694Z,0.00
2018-11-22T02:31:42.747Z,0.00
2018-11-22T02:32:42.888Z,0.00
2018-11-22T02:33:42.800Z,0.00
2018-11-22T02:34:42.867Z,0.00
2018-11-22T02:35:42.905Z,0.00
2018-11-22T02:36:42.964Z,0.00
2018-11-22T02:37:43.011Z,0.00
2018-11-22T02:38:43.050Z,0.00
2018-11-22T02:39:43.087Z,0.00
2018-11-22T02:40:43.122Z,0.00
2018-11-22T02:41:43.133Z,0.00
2018-11-22T02:42:43.183Z,0.00
2018-11-22T02:43:43.225Z,0.00
2018-11-22T02:44:43.296Z,0.00
2018-11-22T02:45:43.325Z,0.00
2018-11-22T02:46:43.348Z,0.00
2018-11-22T02:47:43.406Z,0.00
2018-11-22T02:48:43.456Z,0.00
2018-11-22T02:49:43.503Z,0.00
2018-11-22T02:50:43.545Z,0.00
2018-11-22T02:51:43.588Z,0.00
2018-11-22T02:52:43.640Z,0.00
2018-11-22T02:53:43.641Z,0.00
2018-11-22T02:54:43.725Z,0.00
2018-11-22T02:55:43.773Z,0.00
2018-11-22T02:56:43.813Z,0.00
2018-11-22T02:57:43.892Z,0.00
2018-11-22T02:58:43.877Z,0.00
2018-11-22T02:59:43.936Z,0.00
2018-11-22T03:00:43.984Z,0.00
2018-11-22T03:01:43.999Z,0.00
2018-11-22T03:02:44.053Z,0.00
2018-11-22T03:03:44.111Z,0.00
2018-11-22T03:04:44.169Z,0.00
2018-11-22T03:05:44.197Z,0.00
2018-11-22T03:06:44.254Z,0.00
2018-11-22T03:07:44.325Z,0.00
2018-11-22T03:08:44.349Z,0.00
2018-11-22T03:09:44.356Z,0.00
2018-11-22T03:10:44.439Z,0.00
2018-11-22T03:11:44.452Z,0.00
2018-11-22T03:12:44.520Z,0.00
2018-11-22T03:13:44.555Z,0.00
2018-11-22T03:14:44.582Z,0.00
2018-11-22T03:15:44.631Z,0.00
2018-11-22T03:16:44.695Z,0.00
2018-11-22T03:17:44.724Z,0.00
2018-11-22T03:18:44.766Z,0.00
2018-11-22T03:19:44.813Z,0.00
2018-11-22T03:20:44.915Z,0.00
2018-11-22T03:21:44.896Z,0.00
2018-11-22T03:22:44.958Z,0.00
2018-11-22T03:23:45.008Z,0.00
2018-11-22T03:24:45.017Z,0.00
2018-11-22T03:25:45.099Z,0.00
2018-11-22T03:26:45.171Z,0.00
2018-11-22T03:27:45.218Z,0.00
2018-11-22T03:28:45.226Z,0.00
2018-11-22T03:29:45.260Z,0.00
2018-11-22T03:30:45.310Z,0.00
2018-11-22T03:31:45.330Z,0.00
2018-11-22T03:32:45.395Z,0.00
2018-11-22T03:33:45.436Z,0.00
2018-11-22T03:34:45.491Z,0.00
2018-11-22T03:35:45.522Z,0.00
2018-11-22T03:36:45.552Z,0.00
2018-11-22T03:37:45.631Z,0.00
2018-11-22T03:38:45.662Z,0.00
2018-11-22T03:39:45.714Z,0.00
2018-11-22T03:40:45.764Z,0.00
2018-11-22T03:41:45.795Z,0.00
2018-11-22T03:42:45.855Z,0.00
2018-11-22T03:43:45.922Z,0.00
2018-11-22T03:44:45.957Z,0.00
2018-11-22T03:45:45.996Z,0.00
2018-11-22T03:46:46.303Z,0.00
2018-11-22T03:47:46.056Z,0.00
2018-11-22T03:48:46.111Z,0.00
2018-11-22T03:49:50.382Z,0.00
2018-11-22T03:50:46.189Z,0.00
2018-11-22T03:51:46.232Z,0.00
2018-11-22T03:52:46.286Z,0.00
2018-11-22T03:53:46.318Z,0.00
2018-11-22T03:54:46.370Z,0.00
2018-11-22T03:55:46.414Z,0.00
2018-11-22T03:56:46.435Z,0.00
2018-11-22T03:57:46.506Z,0.00
2018-11-22T03:58:46.527Z,0.00
2018-11-22T03:59:46.569Z,0.00
2018-11-22T04:00:46.637Z,0.00
2018-11-22T04:01:46.680Z,0.00
2018-11-22T04:02:46.749Z,0.00
2018-11-22T04:03:46.762Z,0.00
2018-11-22T04:04:46.811Z,0.00
2018-11-22T04:05:46.854Z,0.00
2018-11-22T04:06:46.913Z,0.00
2018-11-22T04:07:46.956Z,0.00
2018-11-22T04:08:46.998Z,0.00
2018-11-22T04:09:47.039Z,0.00
2018-11-22T04:10:47.074Z,0.00
2018-11-22T04:11:47.164Z,0.00
2018-11-22T04:12:47.210Z,0.00
2018-11-22T04:13:47.227Z,0.00
2018-11-22T04:14:47.259Z,0.00
2018-11-22T04:15:47.298Z,0.00
2018-11-22T04:16:47.348Z,0.00
2018-11-22T04:17:47.376Z,0.00
2018-11-22T04:18:47.419Z,0.00
2018-11-22T04:19:47.459Z,0.00
2018-11-22T04:20:47.570Z,0.00
2018-11-22T04:21:47.560Z,0.00
2018-11-22T04:22:47.610Z,0.00
2018-11-22T04:23:47.639Z,0.00
2018-11-22T04:24:47.704Z,0.00
2018-11-22T04:25:47.725Z,0.00
2018-11-22T04:26:47.798Z,0.00
2018-11-22T04:27:47.847Z,0.00
2018-11-22T04:28:47.879Z,0.00
2018-11-22T04:29:47.927Z,0.00
2018-11-22T04:30:48.002Z,0.00
2018-11-22T04:31:48.006Z,0.00
2018-11-22T04:32:48.029Z,0.00
2018-11-22T04:33:48.097Z,0.00
2018-11-22T04:34:48.129Z,0.00
2018-11-22T04:35:48.169Z,0.00
2018-11-22T04:36:48.238Z,0.00
2018-11-22T04:37:48.268Z,0.00
2018-11-22T04:38:48.299Z,0.00
2018-11-22T04:39:48.623Z,0.00
2018-11-22T04:40:48.444Z,0.00
2018-11-22T04:41:48.447Z,0.00
2018-11-22T04:42:48.477Z,0.00
2018-11-22T04:43:48.576Z,0.00
2018-11-22T04:44:48.584Z,0.00
2018-11-22T04:45:48.612Z,0.00
2018-11-22T04:46:48.670Z,0.00
2018-11-22T04:47:48.687Z,0.00
2018-11-22T04:48:48.761Z,0.00
2018-11-22T04:49:48.798Z,0.00
2018-11-22T04:50:48.837Z,0.00
2018-11-22T04:51:48.890Z,0.00
2018-11-22T04:52:48.977Z,0.00
2018-11-22T04:53:48.977Z,0.00
2018-11-22T04:54:49.057Z,0.00
2018-11-22T04:55:49.051Z,0.00
2018-11-22T04:56:49.357Z,0.00
2018-11-22T04:57:49.202Z,0.00
2018-11-22T04:58:49.175Z,0.00
2018-11-22T04:59:49.235Z,0.00
2018-11-22T05:00:49.330Z,0.00
2018-11-22T05:01:49.365Z,0.00
2018-11-22T05:02:49.352Z,0.00
2018-11-22T05:03:49.428Z,0.00
2018-11-22T05:04:49.498Z,0.00
2018-11-22T05:05:49.505Z,0.00
2018-11-22T05:06:49.542Z,0.00
2018-11-22T05:07:49.595Z,0.00
2018-11-22T05:08:49.614Z,0.00
2018-11-22T05:09:49.687Z,0.00
2018-11-22T05:10:49.710Z,0.00
2018-11-22T05:11:49.751Z,0.00
2018-11-22T05:12:49.809Z,0.00
2018-11-22T05:13:49.846Z,0.00
2018-11-22T05:14:49.907Z,0.00
2018-11-22T05:15:49.959Z,0.00
2018-11-22T05:16:50.000Z,0.00
2018-11-22T05:17:50.027Z,0.00
2018-11-22T05:18:50.064Z,0.00
2018-11-22T05:19:50.132Z,0.00
2018-11-22T05:20:50.154Z,0.00
2018-11-22T05:21:50.217Z,0.00
2018-11-22T05:22:50.305Z,0.00
2018-11-22T05:23:50.300Z,0.00
2018-11-22T05:24:50.340Z,0.00
2018-11-22T05:25:50.391Z,0.00
2018-11-22T05:26:50.442Z,0.00
2018-11-22T05:27:50.491Z,0.00
2018-11-22T05:28:50.540Z,0.00
2018-11-22T05:29:50.549Z,0.00
2018-11-22T05:30:50.615Z,0.00
2018-11-22T05:31:50.690Z,0.00
2018-11-22T05:32:50.696Z,0.00
2018-11-22T05:33:50.758Z,0.00
2018-11-22T05:34:50.791Z,0.00
2018-11-22T05:35:50.843Z,0.00
2018-11-22T05:36:50.884Z,0.00
2018-11-22T05:37:50.908Z,0.00
2018-11-22T05:38:50.975Z,0.00
2018-11-22T05:39:51.009Z,0.00
2018-11-22T05:40:51.068Z,0.00
2018-11-22T05:41:51.147Z,0.00
2018-11-22T05:42:51.147Z,0.00
2018-11-22T05:43:51.181Z,0.00
2018-11-22T05:44:51.229Z,0.00
2018-11-22T05:45:51.292Z,0.00
2018-11-22T05:46:51.314Z,0.00
2018-11-22T05:47:51.383Z,0.00
2018-11-22T05:48:51.451Z,0.00
2018-11-22T05:49:51.437Z,0.00
2018-11-22T05:50:51.501Z,0.00
2018-11-22T05:51:51.549Z,0.00
2018-11-22T05:52:51.586Z,0.00
2018-11-22T05:53:51.630Z,0.00
2018-11-22T05:54:51.681Z,0.00
2018-11-22T05:55:51.780Z,0.00
2018-11-22T05:56:51.761Z,0.00
2018-11-22T05:57:51.802Z,0.00
2018-11-22T05:58:51.861Z,0.00
2018-11-22T05:59:51.894Z,0.00
2018-11-22T06:00:51.927Z,0.00
2018-11-22T06:01:51.994Z,0.00
2018-11-22T06:02:52.331Z,0.00
2018-11-22T06:03:52.072Z,0.00
2018-11-22T06:04:52.127Z,0.00
2018-11-22T06:05:52.149Z,0.00
2018-11-22T06:06:52.209Z,0.00
2018-11-22T06:07:52.253Z,0.00
2018-11-22T06:08:52.309Z,0.00
2018-11-22T06:09:52.364Z,0.00
2018-11-22T06:10:52.357Z,0.00
2018-11-22T06:11:52.413Z,0.00
2018-11-22T06:12:52.457Z,0.00
2018-11-22T06:13:52.801Z,0.00
2018-11-22T06:14:52.571Z,0.00
2018-11-22T06:15:52.617Z,0.00
2018-11-22T06:16:52.655Z,0.00
2018-11-22T06:17:52.697Z,0.00
2018-11-22T06:18:52.737Z,0.00
2018-11-22T06:19:52.824Z,0.00
2018-11-22T06:20:52.853Z,0.00
2018-11-22T06:21:52.913Z,0.00
2018-11-22T06:22:52.897Z,0.00
2018-11-22T06:23:52.947Z,0.00
2018-11-22T06:24:53.010Z,0.00
2018-11-22T06:25:53.063Z,0.00
2018-11-22T06:26:53.099Z,0.00
2018-11-22T06:27:53.145Z,0.00
2018-11-22T06:28:53.173Z,0.00
2018-11-22T06:29:53.261Z,0.00
2018-11-22T06:30:53.274Z,0.00
2018-11-22T06:31:53.371Z,0.00
2018-11-22T06:32:53.343Z,0.00
2018-11-22T06:33:53.401Z,0.00
2018-11-22T06:34:53.451Z,0.00
2018-11-22T06:35:53.485Z,0.00
2018-11-22T06:36:53.538Z,0.00
2018-11-22T06:37:53.556Z,0.00
2018-11-22T06:38:53.630Z,0.00
2018-11-22T06:39:53.641Z,0.00
2018-11-22T06:40:53.748Z,0.00
2018-11-22T06:41:53.751Z,0.00
2018-11-22T06:42:53.803Z,0.00
2018-11-22T06:43:53.844Z,0.00
2018-11-22T06:44:53.868Z,0.00
2018-11-22T06:45:53.935Z,0.00
2018-11-22T06:46:54.012Z,0.00
2018-11-22T06:47:54.014Z,0.00
2018-11-22T06:48:54.043Z,0.00
2018-11-22T06:49:54.105Z,0.00
2018-11-22T06:50:58.198Z,0.00
2018-11-22T06:51:54.188Z,0.00
2018-11-22T06:52:54.224Z,0.00
2018-11-22T06:53:54.271Z,0.00
2018-11-22T06:54:54.331Z,0.00
2018-11-22T06:55:54.384Z,0.00
2018-11-22T06:56:54.417Z,0.00
2018-11-22T06:57:54.452Z,0.00
2018-11-22T06:58:54.506Z,0.00
2018-11-22T06:59:54.562Z,0.00
2018-11-22T07:00:54.599Z,0.00
2018-11-22T07:01:54.647Z,0.00
2018-11-22T07:02:54.669Z,0.00
2018-11-22T07:03:54.727Z,0.00
2018-11-22T07:04:54.771Z,0.00
2018-11-22T07:05:54.823Z,0.00
2018-11-22T07:06:54.873Z,0.00
2018-11-22T07:07:54.932Z,0.00
2018-11-22T07:08:54.963Z,0.00
2018-11-22T07:09:55.006Z,0.00
2018-11-22T07:10:55.057Z,0.00
2018-11-22T07:11:55.095Z,0.00
2018-11-22T07:12:55.127Z,0.00
2018-11-22T07:13:55.205Z,0.00
2018-11-22T07:14:55.219Z,0.00
2018-11-22T07:15:55.235Z,0.00
2018-11-22T07:16:55.294Z,0.00
2018-11-22T07:17:55.615Z,0.00
2018-11-22T07:18:55.378Z,0.00
2018-11-22T07:19:55.447Z,0.00
2018-11-22T07:20:55.494Z,0.00
2018-11-22T07:21:55.523Z,0.00
2018-11-22T07:22:56.201Z,0.00
2018-11-22T07:23:55.599Z,0.00
2018-11-22T07:24:55.646Z,0.00
2018-11-22T07:25:55.697Z,0.00
2018-11-22T07:26:55.732Z,0.00
2018-11-22T07:27:55.769Z,0.00
2018-11-22T07:28:56.075Z,0.00
2018-11-22T07:29:55.918Z,0.00
2018-11-22T07:30:55.935Z,0.00
2018-11-22T07:31:55.980Z,0.00
2018-11-22T07:32:56.051Z,0.00
2018-11-22T07:33:56.056Z,0.00
2018-11-22T07:34:56.092Z,0.00
2018-11-22T07:35:56.138Z,0.00
2018-11-22T07:36:56.177Z,0.00
2018-11-22T07:37:56.213Z,0.00
2018-11-22T07:38:56.276Z,0.00
2018-11-22T07:39:56.354Z,0.00
2018-11-22T07:40:56.363Z,0.00
2018-11-22T07:41:56.404Z,0.00
2018-11-22T07:42:56.439Z,0.00
2018-11-22T07:43:56.492Z,0.00
2018-11-22T07:44:56.513Z,0.00
2018-11-22T07:45:56.585Z,4.00
2018-11-22T07:46:56.623Z,0.00
2018-11-22T07:47:56.671Z,4.00
2018-11-22T07:48:56.701Z,4.00
2018-11-22T07:49:56.753Z,4.00
2018-11-22T07:50:56.788Z,8.00
2018-11-22T07:51:56.828Z,8.00
2018-11-22T07:52:56.879Z,12.00
2018-11-22T07:53:56.921Z,12.00
2018-11-22T07:54:56.963Z,16.00
2018-11-22T07:55:57.024Z,20.00
2018-11-22T07:56:57.062Z,28.00
2018-11-22T07:57:57.103Z,32.00
2018-11-22T07:58:57.133Z,40.00
2018-11-22T07:59:57.181Z,48.00
2018-11-22T08:00:57.243Z,60.00
2018-11-22T08:01:57.276Z,72.00
2018-11-22T08:02:57.327Z,88.00
2018-11-22T08:03:57.359Z,104.00
2018-11-22T08:04:57.402Z,120.00
2018-11-22T08:05:57.454Z,144.00
2018-11-22T08:06:57.512Z,176.00
2018-11-22T08:07:57.546Z,208.00
2018-11-22T08:08:57.594Z,244.00
2018-11-22T08:09:57.622Z,284.00
2018-11-22T08:10:57.708Z,328.00
2018-11-22T08:11:57.718Z,376.00
2018-11-22T08:12:57.777Z,424.00
2018-11-22T08:13:57.819Z,480.00
2018-11-22T08:14:57.879Z,528.00
2018-11-22T08:15:57.905Z,592.00
2018-11-22T08:16:57.984Z,660.00
2018-11-22T08:17:57.997Z,736.00
2018-11-22T08:18:58.038Z,820.00
2018-11-22T08:19:58.080Z,916.00
2018-11-22T08:21:00.993Z,1024.00
2018-11-22T08:21:58.431Z,1124.00
2018-11-22T08:22:58.192Z,1248.00
2018-11-22T08:23:58.234Z,1360.00
2018-11-22T08:24:58.281Z,1452.00
2018-11-22T08:25:58.331Z,1540.00
2018-11-22T08:26:58.420Z,1632.00
2018-11-22T08:27:58.469Z,1736.00
2018-11-22T08:28:58.461Z,1832.00
2018-11-22T08:29:58.552Z,1892.00
2018-11-22T08:30:58.557Z,1900.00
2018-11-22T08:31:58.605Z,1932.00
2018-11-22T08:32:58.940Z,2004.00
2018-11-22T08:33:58.696Z,2152.00
2018-11-22T08:34:58.723Z,2248.00
2018-11-22T08:35:58.820Z,2220.00
2018-11-22T08:36:58.825Z,2332.00
2018-11-22T08:37:58.872Z,2448.00
2018-11-22T08:38:58.903Z,2680.00
2018-11-22T08:39:58.934Z,2816.00
2018-11-22T08:40:58.969Z,2688.00
2018-11-22T08:41:59.039Z,2936.00
2018-11-22T08:42:59.083Z,2864.00
2018-11-22T08:43:59.107Z,3280.00
2018-11-22T08:44:59.175Z,3408.00
2018-11-22T08:45:59.202Z,3520.00
2018-11-22T08:46:59.246Z,3692.00
2018-11-22T08:47:59.302Z,3744.00
2018-11-22T08:48:59.348Z,3800.00
2018-11-22T08:49:59.352Z,3912.00
2018-11-22T08:50:59.409Z,3928.00
2018-11-22T08:51:59.465Z,3868.00
2018-11-22T08:52:59.514Z,3992.00
2018-11-22T08:53:59.573Z,4052.00
2018-11-22T08:54:59.604Z,4372.00
2018-11-22T08:55:59.642Z,4504.00
2018-11-22T08:56:59.700Z,4672.00
2018-11-22T08:57:59.750Z,4840.00
2018-11-22T08:58:59.771Z,5024.00
2018-11-22T08:59:59.799Z,5088.00
2018-11-22T09:00:59.853Z,5172.00
2018-11-22T09:01:59.905Z,5300.00
2018-11-22T09:02:59.961Z,5508.00
2018-11-22T09:04:00.012Z,5608.00
2018-11-22T09:05:00.052Z,5632.00
2018-11-22T09:06:00.089Z,5740.00
2018-11-22T09:07:00.139Z,5960.00
2018-11-22T09:08:00.158Z,6068.00
2018-11-22T09:09:00.226Z,6060.00
2018-11-22T09:10:02.440Z,6180.00
2018-11-22T09:11:00.312Z,6216.00
2018-11-22T09:12:00.344Z,6800.00
2018-11-22T09:13:00.387Z,6836.00
2018-11-22T09:14:00.422Z,6944.00
2018-11-22T09:15:00.484Z,7360.00
2018-11-22T09:16:00.536Z,7740.00
2018-11-22T09:17:00.556Z,7424.00
2018-11-22T09:18:00.595Z,8016.00
2018-11-22T09:19:00.653Z,8060.00
2018-11-22T09:20:01.007Z,8484.00
2018-11-22T09:21:00.787Z,9520.00
2018-11-22T09:22:00.781Z,9484.00
2018-11-22T09:23:00.836Z,11432.00
2018-11-22T09:24:00.876Z,10836.00
2018-11-22T09:25:00.923Z,12540.00
2018-11-22T09:26:00.951Z,15872.00
2018-11-22T09:27:01.021Z,16740.00
2018-11-22T09:28:01.077Z,10460.00
2018-11-22T09:29:01.103Z,12668.00
2018-11-22T09:30:01.164Z,16436.00
2018-11-22T09:31:01.196Z,28128.00
2018-11-22T09:32:01.238Z,12696.00
2018-11-22T09:33:01.289Z,17284.00
2018-11-22T09:34:01.308Z,54048.00
2018-11-22T09:35:01.407Z,60128.00
2018-11-22T09:36:01.441Z,61344.00
2018-11-22T09:37:01.478Z,65696.00
2018-11-22T09:38:01.542Z,65024.00
2018-11-22T09:39:01.571Z,63392.00
2018-11-22T09:40:01.637Z,64000.00
2018-11-22T09:41:01.653Z,72384.00
2018-11-22T09:42:01.759Z,77376.00
2018-11-22T09:43:01.732Z,77824.00
2018-11-22T09:44:01.795Z,77664.00
2018-11-22T09:45:01.853Z,76768.00
2018-11-22T09:46:01.916Z,74976.00
2018-11-22T09:47:01.923Z,71072.00
2018-11-22T09:48:01.986Z,69792.00
2018-11-22T09:49:02.084Z,70880.00
2018-11-22T09:50:02.089Z,71296.00
2018-11-22T09:51:02.136Z,65152.00
2018-11-22T09:52:02.197Z,42336.00
2018-11-22T09:53:02.287Z,53536.00
2018-11-22T09:54:02.289Z,64512.00
2018-11-22T09:55:02.367Z,49088.00
2018-11-22T09:56:02.413Z,49248.00
2018-11-22T09:57:02.445Z,25696.00
2018-11-22T09:58:02.504Z,18432.00
2018-11-22T09:59:02.599Z,73952.00
2018-11-22T10:00:02.617Z,71488.00
2018-11-22T10:01:02.689Z,70912.00
2018-11-22T10:02:02.700Z,26464.00
2018-11-22T10:03:02.861Z,27648.00
2018-11-22T10:04:02.857Z,24192.00
2018-11-22T10:05:02.992Z,62112.00
2018-11-22T10:06:02.932Z,76800.00
2018-11-22T10:07:02.960Z,19584.00
2018-11-22T10:08:03.073Z,39904.00
2018-11-22T10:09:03.078Z,61856.00
2018-11-22T10:10:03.124Z,76736.00
2018-11-22T10:11:03.172Z,71424.00
2018-11-22T10:12:03.213Z,57984.00
2018-11-22T10:13:03.279Z,69664.00
2018-11-22T10:14:03.344Z,75008.00
2018-11-22T10:15:03.386Z,74656.00
2018-11-22T10:16:03.448Z,76896.00
2018-11-22T10:17:03.550Z,75648.00
2018-11-22T10:18:03.521Z,71680.00
2018-11-22T10:19:03.654Z,41792.00
2018-11-22T10:20:03.645Z,81280.00
2018-11-22T10:21:03.690Z,85056.00
2018-11-22T10:22:03.756Z,85344.00
2018-11-22T10:23:03.790Z,80032.00
2018-11-22T10:24:03.847Z,79424.00
2018-11-22T10:25:03.908Z,77888.00
2018-11-22T10:26:03.980Z,80256.00
2018-11-22T10:27:04.032Z,80896.00
2018-11-22T10:28:04.107Z,79104.00
2018-11-22T10:29:04.156Z,80960.00
2018-11-22T10:30:04.221Z,81216.00
2018-11-22T10:31:04.224Z,78944.00
2018-11-22T10:32:04.305Z,82496.00
2018-11-22T10:33:04.323Z,87296.00
2018-11-22T10:34:04.429Z,84832.00
2018-11-22T10:35:04.526Z,82016.00
2018-11-22T10:36:04.559Z,82528.00
2018-11-22T10:37:04.568Z,85056.00
2018-11-22T10:38:04.649Z,82752.00
2018-11-22T10:39:04.698Z,81856.00
2018-11-22T10:40:04.799Z,82816.00
2018-11-22T10:41:04.769Z,83648.00
2018-11-22T10:42:04.853Z,87008.00
2018-11-22T10:44:04.977Z,84096.00
2018-11-22T10:45:05.003Z,87232.00
2018-11-22T10:46:05.073Z,86240.00
2018-11-22T10:47:05.134Z,85056.00
2018-11-22T10:48:05.199Z,82560.00
2018-11-22T10:49:05.226Z,85280.00
2018-11-22T10:50:05.306Z,68928.00
2018-11-22T10:51:05.400Z,89120.00
2018-11-22T10:52:05.409Z,37568.00
2018-11-22T10:53:05.469Z,90112.00
2018-11-22T10:54:05.542Z,88608.00
2018-11-22T10:55:05.596Z,90688.00
2018-11-22T10:56:05.643Z,94144.00
2018-11-22T10:57:05.751Z,93376.00
2018-11-22T10:58:05.793Z,93216.00
2018-11-22T10:59:05.807Z,85536.00
2018-11-22T11:00:05.849Z,96032.00
2018-11-22T11:01:05.923Z,99040.00
2018-11-22T11:02:05.982Z,95328.00
2018-11-22T11:03:06.083Z,95104.00
2018-11-22T11:04:06.083Z,102464.00
2018-11-22T11:05:06.129Z,100256.00
2018-11-22T11:06:06.201Z,97472.00
2018-11-22T11:07:06.272Z,99936.00
2018-11-22T11:08:06.307Z,103744.00
2018-11-22T11:09:06.392Z,100704.00
2018-11-22T11:10:06.433Z,99328.00
2018-11-22T11:11:06.492Z,98912.00
2018-11-22T11:12:06.555Z,103808.00
2018-11-22T11:13:06.645Z,105408.00
2018-11-22T11:14:06.687Z,104224.00
2018-11-22T11:15:06.745Z,107712.00
2018-11-22T11:16:06.776Z,107904.00
2018-11-22T11:17:06.863Z,107200.00
2018-11-22T11:18:06.895Z,105344.00
2018-11-22T11:19:07.009Z,103904.00
2018-11-22T11:20:07.126Z,103264.00
2018-11-22T11:22:07.128Z,104928.00
2018-11-22T11:23:07.209Z,110624.00
2018-11-22T11:24:07.251Z,110592.00
2018-11-22T11:25:07.344Z,110976.00
2018-11-22T11:26:07.412Z,111360.00
2018-11-22T11:27:07.431Z,114720.00
2018-11-22T11:28:07.500Z,112128.00
2018-11-22T11:29:12.728Z,104800.00
2018-11-22T11:30:07.626Z,114944.00
2018-11-22T11:31:07.670Z,113888.00
2018-11-22T11:32:07.760Z,119904.00
2018-11-22T11:33:07.785Z,123968.00
2018-11-22T11:34:07.840Z,92192.00
2018-11-22T11:35:07.915Z,79168.00
2018-11-22T11:36:07.944Z,139520.00
2018-11-22T11:37:08.030Z,136064.00
2018-11-22T11:38:08.095Z,70752.00
2018-11-22T11:39:08.167Z,54688.00
2018-11-22T11:40:08.201Z,153920.00
2018-11-22T11:41:08.262Z,111616.00
2018-11-22T11:42:08.322Z,72224.00
2018-11-22T11:43:08.424Z,90592.00
2018-11-22T11:44:08.436Z,54752.00
2018-11-22T11:45:08.506Z,52352.00
2018-11-22T11:46:08.552Z,47840.00
2018-11-22T11:47:08.621Z,134464.00
2018-11-22T11:48:08.660Z,132160.00
2018-11-22T11:49:08.746Z,119936.00
2018-11-22T11:50:08.792Z,66848.00
2018-11-22T11:51:08.848Z,114720.00
2018-11-22T11:52:08.906Z,132928.00
2018-11-22T11:53:08.973Z,135680.00
2018-11-22T11:54:09.013Z,75040.00
2018-11-22T11:55:09.102Z,131488.00
2018-11-22T11:56:09.152Z,44096.00
2018-11-22T11:57:09.216Z,87168.00
2018-11-22T11:58:09.310Z,132992.00
2018-11-22T11:59:09.314Z,129248.00
2018-11-22T12:00:09.388Z,133152.00
2018-11-22T12:01:09.439Z,100800.00
2018-11-22T12:02:09.813Z,44480.00
2018-11-22T12:03:09.562Z,128320.00
2018-11-22T12:04:09.615Z,148256.00
2018-11-22T12:05:09.694Z,145632.00
2018-11-22T12:06:09.726Z,140672.00
2018-11-22T12:07:09.799Z,134528.00
2018-11-22T12:08:09.861Z,133216.00
2018-11-22T12:09:09.959Z,131232.00
2018-11-22T12:10:09.969Z,102784.00
2018-11-22T12:11:10.033Z,128736.00
2018-11-22T12:12:10.094Z,129856.00
2018-11-22T12:13:10.156Z,129600.00
2018-11-22T12:14:10.216Z,133568.00
2018-11-22T12:15:10.328Z,134048.00
2018-11-22T12:16:10.347Z,132480.00
2018-11-22T12:17:10.387Z,133472.00
2018-11-22T12:18:10.459Z,129248.00
2018-11-22T12:19:10.506Z,129664.00
2018-11-22T12:20:10.576Z,124000.00
2018-11-22T12:21:10.645Z,122848.00
2018-11-22T12:22:10.704Z,125856.00
2018-11-22T12:23:10.781Z,127296.00
2018-11-22T12:24:10.811Z,130144.00
2018-11-22T12:25:10.898Z,128992.00
2018-11-22T12:26:10.955Z,130368.00
2018-11-22T12:27:11.020Z,127776.00
2018-11-22T12:28:11.063Z,128896.00
2018-11-22T12:29:11.127Z,133376.00
2018-11-22T12:30:11.199Z,137248.00
2018-11-22T12:31:11.248Z,141312.00
2018-11-22T12:32:11.331Z,134528.00
2018-11-22T12:33:11.395Z,135008.00
2018-11-22T12:34:11.434Z,130368.00
2018-11-22T12:35:11.489Z,131904.00
2018-11-22T12:36:11.579Z,131296.00
2018-11-22T12:37:11.640Z,127872.00
2018-11-22T12:38:11.676Z,126688.00
2018-11-22T12:39:11.760Z,127200.00
2018-11-22T12:40:11.830Z,134944.00
2018-11-22T12:41:11.860Z,133248.00
2018-11-22T12:42:11.925Z,132352.00
2018-11-22T12:43:12.011Z,133088.00
2018-11-22T12:44:12.038Z,130720.00